FL64 weather

Hardrives Delta Nr 3 Helistop
Delray Beach, Florida, United States

Public forecast

Using degrees Fahrenheit for public forecast. Weather courtesy of forecast.io.

METAR (pilot weather report)

Closest report is Boca Raton Airport, 3.3 nm (6.2 km) SSW. Retrieved 2019/06/20 12:48 UTC (28 minutes ago):

KBCT 201248Z 23004KT 10SM SCT019 29/26 A3007

TAF (pilot weather forecast)

Closest forecast is Fort Lauderdale Executive Airport, 14.7 nm (27.3 km) SSW. Retrieved 2019/06/20 12:22 UTC (54 minutes ago):

TAF KFXE 201120Z 2012/2112 VRB03KT P6SM BKN250 FM201400 19010KT P6SM SCT025 SCT070 SCT250 FM210100 VRB05KT P6SM SCT025 BKN250